Latest Weather Observations for Gatton

IDQ60801

Issued at 8:05 pm EST Sunday 23 November 2014 (issued every 30 minutes, with the page automatically refreshed every 10 minutes)

About weather observations | Map of weather stations | Latest weather observations for QLD | Other Formats
Station Details ID: 040082 Name: UNIVERSITY OF QUEENSLAND GATTON Lat: -27.54 Lon: 152.34 Height: 89.0 m
Data from the previous 72 hours. | See also: Recent months at Gatton
Date/Time
EST
Temp
°C
App
Temp
°C
Dew
Point
Rel
Hum
%
Delta-T
°C
Wind Press
QNH
hPa
Press
MSL
hPa
Rain
since 9 am
mm
Dir
 
Spd
km/h
Gust
km/h
Spd
kts
Gust
kts
23/08:00pm 27.1 26.2 17.8 56 5.9 SSE 19 26 10 14 - - 0.0
23/07:30pm 27.8 27.8 18.2 56 6.1 SE 15 22 8 12 - - 0.0
23/07:00pm 28.5 27.8 18.3 54 6.5 SSE 19 24 10 13 - - 0.0
23/06:30pm 29.8 30.5 18.9 52 7.1 SE 13 17 7 9 - - 0.0
23/06:00pm 31.4 31.1 19.1 48 8.0 SE 19 26 10 14 - - 0.0
23/05:30pm 33.3 32.6 19.4 44 9.2 ESE 22 32 12 17 - - 0.0
23/05:00pm 35.8 35.0 19.3 38 11.0 E 22 32 12 17 - - 0.0
23/04:30pm 37.0 37.2 17.6 32 12.6 ENE 13 20 7 11 - - 0.0
23/04:00pm 37.5 37.3 17.5 30 13.0 ENE 15 22 8 12 - - 0.0
23/03:30pm 37.6 36.8 18.1 32 12.8 E 19 24 10 13 - - 0.0
23/03:00pm 37.8 36.3 17.7 30 13.1 E 22 28 12 15 - - 0.0
23/02:30pm 36.9 36.1 17.0 31 12.9 ENE 17 26 9 14 - - 0.0
23/02:00pm 37.1 36.3 17.1 30 12.9 ENE 17 26 9 14 - - 0.0
23/01:30pm 36.4 35.0 17.0 31 12.5 ENE 20 30 11 16 - - 0.0
23/01:00pm 36.7 36.6 18.7 34 11.9 NE 17 28 9 15 - - 0.0
23/12:30pm 36.0 36.0 18.1 34 11.7 NE 15 24 8 13 - - 0.0
23/12:00pm 35.1 34.6 17.8 36 11.2 ENE 17 24 9 13 - - 0.0
23/11:30am 34.0 33.5 17.7 38 10.5 ENE 17 24 9 13 - - 0.0
23/11:00am 33.7 33.4 18.2 39 10.1 ENE 17 28 9 15 - - 0.0
23/10:30am 32.3 32.7 18.1 42 9.2 NE 13 22 7 12 - - 0.0
23/10:00am 32.1 33.5 18.7 45 8.7 E 9 17 5 9 - - 0.0
23/09:30am 30.8 31.2 18.2 47 8.1 NE 13 28 7 15 - - 0.0
23/09:00am 30.3 30.9 18.7 50 7.5 NE 13 20 7 11 - - 0.0
23/08:30am 29.4 29.5 19.1 54 6.7 NNE 17 22 9 12 - - 0.0
23/08:00am 28.6 29.5 19.2 56 6.1 NNE 13 20 7 11 - - 0.0
23/07:30am 28.3 29.2 20.1 61 5.4 N 15 24 8 13 - - 0.0
23/07:00am 26.9 28.3 20.3 67 4.3 NNE 13 19 7 10 - - 0.0
23/06:30am 26.3 28.2 20.6 71 3.8 NE 11 15 6 8 - - 0.0
23/06:00am 25.7 28.8 21.4 77 2.9 E 7 9 4 5 - - 0.0
23/05:30am 24.4 27.6 21.3 83 2.1 E 6 9 3 5 - - 0.0
23/05:00am 24.3 27.3 21.2 83 2.0 E 7 11 4 6 - - 0.0
23/04:30am 24.3 27.9 21.2 83 2.0 ENE 4 6 2 3 - - 0.0
23/04:00am 24.2 27.3 21.1 83 2.0 E 6 7 3 4 - - 0.0
23/03:30am 24.1 27.2 21.0 83 2.0 SE 6 7 3 4 - - 0.0
23/03:00am 24.0 28.3 21.1 84 1.9 CALM 0 0 0 0 - - 0.0
23/02:30am 23.5 27.6 20.8 85 1.8 CALM 0 6 0 3 - - 0.0
23/02:00am 23.3 26.4 20.2 83 2.0 SE 4 7 2 4 - - 0.0
23/01:30am 23.7 26.4 20.6 83 2.0 SE 7 9 4 5 - - 0.0
23/01:00am 24.3 27.1 20.8 81 2.3 SSE 7 9 4 5 - - 0.0
23/12:30am 24.6 26.7 20.9 80 2.4 E 11 13 6 7 - - 0.0
23/12:00am 24.7 28.8 20.8 79 2.6 CALM 0 6 0 3 - - 0.0
 
Date/Time
EST
Temp
°C
App
Temp
°C
Dew
Point
Rel
Hum
%
Delta-T
°C
Wind Press
QNH
hPa
Press
MSL
hPa
Rain
since 9 am
mm
Dir
 
Spd
km/h
Gust
km/h
Spd
kts
Gust
kts
22/11:30pm 24.8 28.5 20.7 78 2.7 ESE 2 7 1 4 - - 0.0
22/11:00pm 25.1 27.2 21.0 78 2.7 ESE 11 15 6 8 - - 0.0
22/10:30pm 25.5 27.6 21.0 76 3.0 SE 11 17 6 9 - - 0.0
22/10:00pm 25.8 28.3 21.0 75 3.2 SE 9 15 5 8 - - 0.0
22/09:30pm 26.3 28.2 21.3 74 3.3 SE 13 17 7 9 - - 0.0
22/09:00pm 26.6 28.5 21.4 73 3.5 SE 13 17 7 9 - - 0.0
22/08:30pm 27.2 29.2 21.5 71 3.8 SE 13 17 7 9 - - 0.0
22/08:00pm 27.8 29.5 21.6 69 4.2 SE 15 20 8 11 - - 0.0
22/07:30pm 28.8 30.2 21.8 66 4.7 SE 17 20 9 11 - - 0.0
22/07:00pm 29.9 32.3 21.6 61 5.6 SE 11 17 6 9 - - 0.0
22/06:30pm 31.9 34.0 21.7 54 6.9 ESE 13 19 7 10 - - 0.0
22/06:00pm 33.4 34.5 21.9 51 7.9 ENE 19 22 10 12 - - 0.0
22/05:30pm 34.1 35.0 21.9 49 8.3 ENE 20 26 11 14 - - 0.0
22/05:00pm 35.0 35.9 22.0 46 8.9 ENE 20 30 11 16 - - 0.0
22/04:30pm 36.0 36.1 21.1 42 10.1 E 22 30 12 16 - - 0.0
22/04:00pm 37.6 37.3 20.4 36 11.6 ENE 22 32 12 17 - - 0.0
22/03:30pm 38.5 37.9 18.9 32 13.0 ENE 20 32 11 17 - - 0.0
22/03:00pm 38.3 38.4 19.2 32 12.8 NE 17 30 9 16 - - 0.0
22/02:30pm 38.7 38.6 19.5 32 12.9 E 19 30 10 16 - - 0.0
22/02:00pm 37.8 37.5 19.2 33 12.4 E 19 24 10 13 - - 0.0
22/01:30pm 37.6 38.2 19.5 34 12.1 ESE 15 28 8 15 - - 0.0
22/01:00pm 36.6 36.1 18.6 34 11.9 E 19 30 10 16 - - 0.0
22/12:30pm 36.8 37.3 19.3 36 11.7 SE 15 20 8 11 - - 0.0
22/12:00pm 35.8 36.7 19.3 38 11.0 ENE 13 20 7 11 - - 0.0
22/11:30am 34.8 37.0 19.2 39 10.3 E 6 11 3 6 - - 0.0
22/11:00am 34.0 36.1 19.3 42 9.7 WSW 7 13 4 7 - - 0.0
22/10:30am 33.2 35.1 19.7 45 8.9 NE 9 15 5 8 - - 0.0
22/10:00am 32.8 34.9 19.3 45 8.9 S 7 15 4 8 - - 0.0
22/09:30am 31.2 33.0 19.5 49 7.7 SSW 9 13 5 7 - - 0.0
22/09:00am 30.4 32.4 19.1 50 7.4 N 7 13 4 7 - - 0.0
22/08:30am 30.0 31.6 20.0 55 6.6 NNE 11 15 6 8 - - 0.0
22/08:00am 29.2 30.1 19.2 54 6.5 NNE 13 17 7 9 - - 0.0
22/07:30am 28.7 29.4 19.6 58 5.9 NNE 15 20 8 11 - - 0.0
22/07:00am 27.6 27.8 19.4 61 5.3 NNE 17 22 9 12 - - 0.0
22/06:30am 26.4 26.2 19.3 65 4.6 N 19 24 10 13 - - 0.0
22/06:00am 25.3 25.5 19.4 70 3.8 N 17 22 9 12 - - 0.0
22/05:30am 24.9 26.1 19.0 69 3.8 NNE 11 17 6 9 - - 0.0
22/05:00am 24.5 26.1 19.1 72 3.5 NE 9 11 5 6 - - 0.0
22/04:30am 23.7 26.2 19.8 79 2.5 NE 6 9 3 5 - - 0.0
22/04:00am 23.7 27.6 20.4 82 2.1 CALM 0 0 0 0 - - 0.0
22/03:30am 23.8 26.5 20.7 83 2.0 ESE 7 9 4 5 - - 0.0
22/03:00am 23.0 27.0 20.5 86 1.6 CALM 0 0 0 0 - - 0.0
22/02:30am 23.6 26.4 20.9 85 1.8 SE 7 11 4 6 - - 0.0
22/02:00am 23.9 26.0 21.0 84 1.9 SE 11 13 6 7 - - 0.0
22/01:30am 24.4 26.3 21.3 83 2.1 SSE 13 17 7 9 - - 0.0
22/01:00am 24.8 27.2 21.5 82 2.2 SSE 11 15 6 8 - - 0.0
22/12:30am 24.9 28.1 21.6 82 2.2 S 7 11 4 6 - - 0.0
22/12:00am 25.2 28.4 21.3 79 2.6 N 6 9 3 5 - - 0.0
 
Date/Time
EST
Temp
°C
App
Temp
°C
Dew
Point
Rel
Hum
%
Delta-T
°C
Wind Press
QNH
hPa
Press
MSL
hPa
Rain
since 9 am
mm
Dir
 
Spd
km/h
Gust
km/h
Spd
kts
Gust
kts
21/11:30pm 25.3 28.1 21.6 80 2.5 ESE 9 13 5 7 - - 0.0
21/11:00pm 25.5 28.5 22.0 81 2.3 NE 9 11 5 6 - - 0.0
21/10:30pm 25.6 29.6 21.3 77 2.9 E 2 7 1 4 - - 0.0
21/10:00pm 26.3 29.1 21.5 75 3.2 SSE 9 13 5 7 - - 0.0
21/09:30pm 26.8 28.7 21.3 72 3.7 S 13 17 7 9 - - 0.0
21/09:00pm 26.9 28.1 21.4 72 3.7 S 17 22 9 12 - - 0.0
21/08:30pm 26.9 28.1 21.4 72 3.7 SSE 17 20 9 11 - - 0.0
21/08:00pm 27.4 30.1 21.4 70 4.0 SE 9 15 5 8 - - 0.0
21/07:30pm 28.9 30.7 21.1 62 5.2 ESE 13 17 7 9 - - 0.0
21/07:00pm 30.2 31.6 21.0 58 6.2 E 15 19 8 10 - - 0.0
21/06:30pm 31.1 31.2 20.4 53 7.1 ENE 20 28 11 15 - - 0.0
21/06:00pm 33.2 32.5 18.2 41 9.7 NE 19 24 10 13 - - 0.0
21/05:30pm 34.5 33.6 17.7 37 10.9 NNE 19 26 10 14 - - 0.0
21/05:00pm 35.5 34.6 17.7 35 11.6 NNE 19 24 10 13 - - 0.0
21/04:30pm 35.7 34.3 17.9 35 11.6 N 22 28 12 15 - - 0.0
21/04:00pm 36.1 35.8 18.2 34 11.7 NE 17 28 9 15 - - 0.0
21/03:30pm 36.3 36.2 17.9 33 12.0 NNE 15 22 8 12 - - 0.0
21/03:00pm 36.8 36.6 19.3 36 11.7 ENE 19 30 10 16 - - 0.0
21/02:30pm 35.8 36.1 17.9 34 11.7 NNE 13 24 7 13 - - 0.0
21/02:00pm 35.6 35.6 18.2 35 11.4 NNE 15 20 8 11 - - 0.0
21/01:30pm 35.3 34.5 18.4 37 11.1 NNE 20 32 11 17 - - 0.0
21/01:00pm 34.1 33.2 17.8 38 10.6 N 19 32 10 17 - - 0.0
21/12:30pm 34.3 33.6 18.3 38 10.4 NE 19 28 10 15 - - 0.0
21/12:00pm 34.2 34.4 19.4 41 9.8 NE 17 28 9 15 - - 0.0
21/11:30am 32.9 32.4 18.7 43 9.3 NNE 19 26 10 14 - - 0.0
21/11:00am 32.0 31.8 18.6 45 8.7 NNE 17 24 9 13 - - 0.0
21/10:30am 31.5 32.0 19.2 48 8.1 NE 15 22 8 12 - - 0.0
21/10:00am 30.0 29.4 18.4 49 7.5 NNE 19 26 10 14 - - 0.0
21/09:30am 29.7 29.8 19.1 53 6.9 NNE 17 24 9 13 - - 0.0
21/09:00am 29.1 29.1 19.7 57 6.2 N 19 26 10 14 - - 0.0
21/08:30am 27.5 27.5 19.0 59 5.5 N 17 26 9 14 - - 0.0
21/08:00am 26.5 26.1 19.4 65 4.6 NNE 20 30 11 16 - - 0.0
21/07:30am 26.1 26.2 20.0 69 4.0 NNE 19 26 10 14 - - 0.0
21/07:00am 24.9 26.7 20.4 76 2.9 ENE 11 17 6 9 - - 0.0
21/06:30am 24.3 26.6 20.6 80 2.4 ESE 9 15 5 8 - - 0.0
21/06:00am 22.4 23.9 18.0 76 2.8 ESE 7 11 4 6 - - 0.0
21/05:30am 20.9 24.4 19.6 92 0.8 CALM 0 0 0 0 - - 0.0
21/05:00am 20.5 23.7 18.8 90 1.1 CALM 0 0 0 0 - - 0.0
21/04:30am 20.8 23.1 18.6 87 1.4 ESE 4 9 2 5 - - 0.0
21/04:00am 20.9 23.9 18.5 86 1.5 CALM 0 0 0 0 - - 0.0
21/03:30am 21.6 22.9 19.2 86 1.5 E 11 13 6 7 - - 0.0
21/03:00am 21.9 23.6 19.3 85 1.7 E 9 11 5 6 - - 0.0
21/02:30am 22.2 23.5 19.2 83 1.9 E 11 15 6 8 - - 0.0
21/02:00am 23.0 24.5 19.8 82 2.1 E 11 15 6 8 - - 0.0
21/01:30am 23.4 24.9 19.8 80 2.3 E 11 13 6 7 - - 0.0
21/01:00am 23.4 25.3 19.8 80 2.3 E 9 13 5 7 - - 0.0
21/12:30am 23.2 24.8 20.0 82 2.1 E 11 13 6 7 - - 0.0
21/12:00am 22.9 23.5 19.5 81 2.2 E 15 19 8 10 - - 0.0
 
Date/Time
EST
Temp
°C
App
Temp
°C
Dew
Point
Rel
Hum
%
Delta-T
°C
Wind Press
QNH
hPa
Press
MSL
hPa
Rain
since 9 am
mm
Dir
 
Spd
km/h
Gust
km/h
Spd
kts
Gust
kts
20/11:30pm 23.1 24.3 19.9 82 2.1 E 13 17 7 9 - - 0.0
20/11:00pm 23.1 24.2 19.7 81 2.2 E 13 17 7 9 - - 0.0
20/10:30pm 23.7 24.9 19.8 79 2.5 E 13 17 7 9 - - 0.0
20/10:00pm 23.5 24.9 19.6 79 2.5 E 11 15 6 8 - - 0.0
20/09:30pm 23.5 24.9 19.6 79 2.5 ENE 11 13 6 7 - - 0.0
20/09:00pm 23.5 24.8 19.4 78 2.6 E 11 15 6 8 - - 0.0
20/08:30pm 24.3 25.7 19.6 75 3.0 ENE 11 15 6 8 - - 0.0

Other Formats:

Comma delimited format used in spreadsheet applications
http://www.bom.gov.au/fwo/IDQ60801/IDQ60801.94562.axf

JavaScript Object Notation format (JSON) in row-major order
http://www.bom.gov.au/fwo/IDQ60801/IDQ60801.94562.json